createdAt,value
2023-05-21T00:00:59.323Z,30.40
2023-05-21T00:03:31.308Z,30.40
2023-05-21T00:06:02.643Z,30.40
2023-05-21T00:08:32.212Z,30.50
2023-05-21T00:11:01.773Z,30.50
2023-05-21T00:13:31.238Z,30.50
2023-05-21T00:16:00.710Z,30.60
2023-05-21T00:18:33.537Z,30.60
2023-05-21T00:21:03.251Z,30.60
2023-05-21T00:23:33.918Z,30.60
2023-05-21T00:26:09.336Z,30.60
2023-05-21T00:28:38.759Z,30.60
2023-05-21T00:31:08.177Z,30.70
2023-05-21T00:33:37.565Z,30.70
2023-05-21T00:36:07.347Z,30.70
2023-05-21T00:38:39.080Z,30.70
2023-05-21T00:41:11.985Z,30.80
2023-05-21T00:43:42.971Z,30.90
2023-05-21T00:46:18.917Z,30.90
2023-05-21T00:48:50.113Z,30.90
2023-05-21T00:51:22.749Z,31.00
2023-05-21T00:53:59.771Z,31.10
2023-05-21T00:56:30.306Z,31.10
2023-05-21T00:59:00.656Z,31.20
2023-05-21T01:01:38.042Z,31.20
2023-05-21T01:04:07.761Z,31.30
2023-05-21T01:06:37.148Z,31.30
2023-05-21T01:09:08.309Z,31.40
2023-05-21T01:11:44.370Z,31.40
2023-05-21T01:14:25.158Z,31.50
2023-05-21T01:16:55.778Z,31.50
2023-05-21T01:19:36.575Z,31.60
2023-05-21T01:22:12.485Z,31.60
2023-05-21T01:24:48.757Z,31.70
2023-05-21T01:27:21.633Z,31.70
2023-05-21T01:29:54.001Z,31.70
2023-05-21T01:32:38.991Z,31.80
2023-05-21T01:35:17.238Z,31.80
2023-05-21T01:38:08.531Z,31.90
2023-05-21T01:41:01.458Z,32.00
2023-05-21T01:43:35.487Z,32.00
2023-05-21T01:46:11.179Z,32.00
2023-05-21T01:48:41.971Z,32.10
2023-05-21T01:51:17.332Z,32.10
2023-05-21T01:53:49.731Z,32.20
2023-05-21T01:56:19.171Z,32.20
2023-05-21T01:58:51.141Z,32.20
2023-05-21T02:01:23.853Z,32.30
2023-05-21T02:03:53.407Z,32.30
2023-05-21T02:06:23.828Z,32.40
2023-05-21T02:08:53.272Z,32.50
2023-05-21T02:11:23.410Z,32.50
2023-05-21T02:13:53.598Z,32.60
2023-05-21T02:16:23.788Z,32.60
2023-05-21T02:18:58.076Z,32.80
2023-05-21T02:21:27.691Z,32.80
2023-05-21T02:23:57.031Z,32.90
2023-05-21T02:26:26.483Z,33.00
2023-05-21T02:28:56.626Z,33.10
2023-05-21T02:31:26.031Z,33.20
2023-05-21T02:33:55.338Z,33.20
2023-05-21T02:36:26.369Z,33.30
2023-05-21T02:38:56.115Z,33.30
2023-05-21T02:41:25.511Z,33.40
2023-05-21T02:43:54.711Z,33.40
2023-05-21T02:46:24.153Z,33.50
2023-05-21T02:48:53.412Z,33.60
2023-05-21T02:51:22.625Z,33.60
2023-05-21T02:53:51.948Z,33.70
2023-05-21T02:56:21.216Z,33.80
2023-05-21T02:58:50.604Z,33.80
2023-05-21T03:01:19.906Z,33.90
2023-05-21T03:03:49.277Z,33.90
2023-05-21T03:06:18.588Z,33.90
2023-05-21T03:08:47.782Z,33.90
2023-05-21T03:11:17.107Z,34.00
2023-05-21T03:13:46.460Z,34.10
2023-05-21T03:16:15.736Z,34.20
2023-05-21T03:18:46.198Z,34.20
2023-05-21T03:21:16.480Z,34.20
2023-05-21T03:23:45.739Z,34.30
2023-05-21T03:26:15.274Z,34.40
2023-05-21T03:28:44.482Z,34.50
2023-05-21T03:31:13.700Z,34.50
2023-05-21T03:33:43.002Z,34.60
2023-05-21T03:36:12.296Z,34.70
2023-05-21T03:38:41.700Z,34.80
2023-05-21T03:41:12.164Z,34.80
2023-05-21T03:43:41.659Z,34.90
2023-05-21T03:46:10.916Z,35.00
2023-05-21T03:48:40.331Z,35.00
2023-05-21T03:51:16.953Z,35.10
2023-05-21T03:53:46.226Z,35.10
2023-05-21T03:56:15.431Z,35.10
2023-05-21T03:58:44.778Z,35.20
2023-05-21T04:01:14.427Z,35.30
2023-05-21T04:03:43.859Z,35.40
2023-05-21T04:06:13.626Z,35.40
2023-05-21T04:08:43.694Z,35.50
2023-05-21T04:11:12.848Z,35.60
2023-05-21T04:13:42.110Z,35.70
2023-05-21T04:16:11.977Z,35.70
2023-05-21T04:18:45.470Z,35.80
2023-05-21T04:21:15.523Z,35.90
2023-05-21T04:23:45.020Z,35.90
2023-05-21T04:26:14.297Z,36.00
2023-05-21T04:28:43.870Z,36.10
2023-05-21T04:31:14.776Z,36.20
2023-05-21T04:33:46.942Z,36.30
2023-05-21T04:36:18.377Z,36.40
2023-05-21T04:38:47.674Z,36.50
2023-05-21T04:41:19.873Z,36.60
2023-05-21T04:43:49.312Z,36.70
2023-05-21T04:46:18.766Z,36.80
2023-05-21T04:48:48.034Z,37.00
2023-05-21T04:51:17.384Z,37.10
2023-05-21T04:53:47.237Z,37.20
2023-05-21T04:56:18.594Z,37.40
2023-05-21T04:58:50.903Z,37.50
2023-05-21T05:01:20.518Z,37.60
2023-05-21T05:03:50.327Z,37.70
2023-05-21T05:06:20.184Z,37.80
2023-05-21T05:08:49.744Z,37.80
2023-05-21T05:11:19.092Z,37.90
2023-05-21T05:13:48.439Z,38.00
2023-05-21T05:16:19.539Z,38.00
2023-05-21T05:18:49.470Z,38.10
2023-05-21T05:21:18.817Z,38.10
2023-05-21T05:23:48.205Z,38.20
2023-05-21T05:26:17.475Z,38.30
2023-05-21T05:28:47.381Z,38.30
2023-05-21T05:31:17.031Z,38.40
2023-05-21T05:33:46.586Z,38.40
2023-05-21T05:36:15.936Z,38.40
2023-05-21T05:38:45.247Z,38.50
2023-05-21T05:41:14.652Z,38.60
2023-05-21T05:43:43.957Z,38.70
2023-05-21T05:46:13.215Z,38.80
2023-05-21T05:48:42.429Z,38.70
2023-05-21T05:51:13.020Z,38.70
2023-05-21T05:53:42.321Z,38.80
2023-05-21T05:56:11.653Z,38.80
2023-05-21T05:58:40.866Z,38.90
2023-05-21T06:01:10.105Z,39.00
2023-05-21T06:03:39.489Z,39.10
2023-05-21T06:06:08.809Z,39.20
2023-05-21T06:08:38.380Z,39.20
2023-05-21T06:11:07.735Z,39.30
2023-05-21T06:13:37.060Z,39.40
2023-05-21T06:16:07.489Z,39.40
2023-05-21T06:18:37.701Z,39.40
2023-05-21T06:21:07.028Z,39.50
2023-05-21T06:23:38.752Z,39.50
2023-05-21T06:26:08.142Z,39.50
2023-05-21T06:28:37.990Z,39.50
2023-05-21T06:31:07.676Z,39.60
2023-05-21T06:33:36.974Z,39.60
2023-05-21T06:36:06.663Z,39.60
2023-05-21T06:38:36.237Z,39.70
2023-05-21T06:41:05.536Z,39.80
2023-05-21T06:43:34.694Z,39.90
2023-05-21T06:46:03.928Z,39.90
2023-05-21T06:48:33.265Z,39.80
2023-05-21T06:51:02.516Z,39.70
2023-05-21T06:53:32.053Z,39.60
2023-05-21T06:56:04.255Z,39.60
2023-05-21T06:58:33.954Z,39.60
2023-05-21T07:01:03.888Z,39.60
2023-05-21T07:03:33.276Z,39.60
2023-05-21T07:06:02.833Z,39.70
2023-05-21T07:08:32.467Z,39.80
2023-05-21T07:11:01.888Z,39.80
2023-05-21T07:13:32.019Z,39.80
2023-05-21T07:16:01.452Z,39.90
2023-05-21T07:18:31.175Z,39.90
2023-05-21T07:21:00.713Z,39.90
2023-05-21T07:23:29.928Z,39.90
2023-05-21T07:25:59.175Z,40.00
2023-05-21T07:28:28.446Z,40.00
2023-05-21T07:30:57.867Z,40.10
2023-05-21T07:33:27.351Z,40.20
2023-05-21T07:35:56.618Z,40.20
2023-05-21T07:38:25.857Z,40.20
2023-05-21T07:40:55.138Z,40.20
2023-05-21T07:43:24.800Z,40.20
2023-05-21T07:45:54.158Z,40.20
2023-05-21T07:48:23.498Z,40.30
2023-05-21T07:50:53.734Z,40.40
2023-05-21T07:53:22.984Z,40.50
2023-05-21T07:55:52.345Z,40.40
2023-05-21T07:58:21.995Z,40.50
2023-05-21T08:00:52.077Z,40.40
2023-05-21T08:03:21.651Z,40.20
2023-05-21T08:05:51.747Z,40.20
2023-05-21T08:08:23.119Z,40.20
2023-05-21T08:10:52.390Z,40.10
2023-05-21T08:13:21.846Z,40.00
2023-05-21T08:15:53.392Z,40.00
2023-05-21T08:18:24.793Z,40.00
2023-05-21T08:20:54.320Z,40.00
2023-05-21T08:23:23.667Z,40.00
2023-05-21T08:25:54.405Z,40.00
2023-05-21T08:28:24.672Z,40.00
2023-05-21T08:30:53.916Z,39.90
2023-05-21T08:33:23.319Z,39.90
2023-05-21T08:35:52.630Z,39.80
2023-05-21T08:38:22.144Z,39.80
2023-05-21T08:40:55.752Z,39.90
2023-05-21T08:43:30.309Z,39.90
2023-05-21T08:46:04.625Z,40.00
2023-05-21T08:48:34.201Z,40.10
2023-05-21T08:51:03.570Z,40.10
2023-05-21T08:53:35.776Z,40.20
2023-05-21T08:56:05.650Z,40.20
2023-05-21T08:58:35.430Z,40.20
2023-05-21T09:01:07.126Z,40.20
2023-05-21T09:03:40.426Z,40.20
2023-05-21T09:06:15.145Z,40.20
2023-05-21T09:08:55.507Z,40.20
2023-05-21T09:11:25.012Z,40.20
2023-05-21T09:13:56.749Z,40.30
2023-05-21T09:16:26.090Z,40.20
2023-05-21T09:18:55.926Z,40.20
2023-05-21T09:21:31.206Z,40.10
2023-05-21T09:24:02.872Z,40.10
2023-05-21T09:26:32.289Z,40.00
2023-05-21T09:29:02.673Z,39.90
2023-05-21T09:31:33.907Z,39.80
2023-05-21T09:34:03.480Z,39.70
2023-05-21T09:36:32.872Z,39.60
2023-05-21T09:39:02.304Z,39.70
2023-05-21T09:41:39.174Z,39.60
2023-05-21T09:44:08.590Z,39.50
2023-05-21T09:46:44.036Z,39.50
2023-05-21T09:49:27.464Z,39.40
2023-05-21T09:52:00.505Z,39.40
2023-05-21T09:54:35.848Z,39.50
2023-05-21T09:57:05.469Z,39.50
2023-05-21T09:59:41.547Z,39.50
2023-05-21T10:02:23.621Z,39.50
2023-05-21T10:04:57.139Z,39.50
2023-05-21T10:07:28.141Z,39.50
2023-05-21T10:10:01.361Z,39.50
2023-05-21T10:12:34.695Z,39.50
2023-05-21T10:17:53.701Z,39.50
2023-05-21T10:20:24.327Z,39.50
2023-05-21T10:22:55.029Z,39.40
2023-05-21T10:25:24.921Z,39.40
2023-05-21T10:27:57.352Z,39.40
2023-05-21T10:30:27.135Z,39.30
2023-05-21T10:32:58.462Z,39.30
2023-05-21T10:35:29.920Z,39.30
2023-05-21T10:38:03.289Z,39.30
2023-05-21T10:40:32.933Z,39.20
2023-05-21T10:43:23.924Z,39.20
2023-05-21T10:46:49.745Z,39.10
2023-05-21T10:49:31.411Z,39.00
2023-05-21T10:52:46.248Z,38.90
2023-05-21T10:55:44.462Z,38.80
2023-05-21T10:58:44.615Z,38.60
2023-05-21T11:01:16.479Z,38.50
2023-05-21T11:03:46.352Z,38.40
2023-05-21T11:06:27.189Z,38.20
2023-05-21T11:08:56.538Z,38.10
2023-05-21T11:11:45.906Z,38.00
2023-05-21T11:14:42.025Z,37.90
2023-05-21T11:17:44.272Z,37.70
2023-05-21T11:20:15.301Z,37.60
2023-05-21T11:22:47.901Z,37.50
2023-05-21T11:25:17.180Z,37.40
2023-05-21T11:27:46.544Z,37.30
2023-05-21T11:30:20.765Z,37.30
2023-05-21T11:33:16.544Z,37.20
2023-05-21T11:35:52.685Z,37.10
2023-05-21T11:38:22.073Z,37.00
2023-05-21T11:41:04.443Z,36.90
2023-05-21T11:43:33.716Z,36.80
2023-05-21T11:46:03.772Z,36.80
2023-05-21T11:48:34.040Z,36.70
2023-05-21T11:51:03.833Z,36.70
2023-05-21T11:53:33.168Z,36.60
2023-05-21T11:56:04.728Z,36.50
2023-05-21T11:58:34.179Z,36.50
2023-05-21T12:01:03.435Z,36.50
2023-05-21T12:03:37.301Z,36.40
2023-05-21T12:06:10.441Z,36.40
2023-05-21T12:08:40.130Z,36.30
2023-05-21T12:11:09.480Z,36.30
2023-05-21T12:13:39.388Z,36.20
2023-05-21T12:16:09.704Z,36.10
2023-05-21T12:18:39.963Z,36.10
2023-05-21T12:21:12.804Z,35.90
2023-05-21T12:23:42.283Z,35.80
2023-05-21T12:26:26.434Z,35.70
2023-05-21T12:29:02.911Z,35.70
2023-05-21T12:31:33.810Z,35.60
2023-05-21T12:34:03.524Z,35.50
2023-05-21T12:36:35.192Z,35.50
2023-05-21T12:39:07.973Z,35.50
2023-05-21T12:41:38.696Z,35.40
2023-05-21T12:44:09.848Z,35.40
2023-05-21T12:46:39.363Z,35.40
2023-05-21T12:49:09.908Z,35.40
2023-05-21T12:51:44.602Z,35.40
2023-05-21T12:54:16.987Z,35.30
2023-05-21T12:56:49.112Z,35.30
2023-05-21T12:59:18.676Z,35.30
2023-05-21T13:01:50.475Z,35.30
2023-05-21T13:04:22.390Z,35.30
2023-05-21T13:06:51.719Z,35.20
2023-05-21T13:09:21.042Z,35.20
2023-05-21T13:11:54.489Z,35.20
2023-05-21T13:14:23.910Z,35.20
2023-05-21T13:16:56.311Z,35.20
2023-05-21T13:19:26.035Z,35.20
2023-05-21T13:21:55.401Z,35.20
2023-05-21T13:24:27.254Z,35.20
2023-05-21T13:26:56.719Z,35.20
2023-05-21T13:29:26.321Z,35.20
2023-05-21T13:31:55.731Z,35.10
2023-05-21T13:34:29.651Z,34.90
2023-05-21T13:36:59.447Z,34.70
2023-05-21T13:39:29.038Z,34.50
2023-05-21T13:41:58.335Z,34.20
2023-05-21T13:44:29.803Z,34.10
2023-05-21T13:47:00.851Z,33.90
2023-05-21T13:49:30.231Z,33.80
2023-05-21T13:52:01.297Z,33.60
2023-05-21T13:54:35.450Z,33.50
2023-05-21T13:57:05.412Z,33.40
2023-05-21T13:59:37.644Z,33.30
2023-05-21T14:02:07.260Z,33.20
2023-05-21T14:04:39.090Z,33.10
2023-05-21T14:07:15.034Z,33.00
2023-05-21T14:09:47.462Z,33.00
2023-05-21T14:12:16.918Z,32.90
2023-05-21T14:15:07.007Z,32.80
2023-05-21T14:17:37.109Z,32.70
2023-05-21T14:20:07.441Z,32.70
2023-05-21T14:22:37.056Z,32.70
2023-05-21T14:25:06.880Z,32.60
2023-05-21T14:27:40.721Z,32.60
2023-05-21T14:30:10.854Z,32.60
2023-05-21T14:32:40.469Z,32.60
2023-05-21T14:35:48.933Z,32.60
2023-05-21T14:38:08.515Z,32.60
2023-05-21T14:40:38.089Z,32.50
2023-05-21T14:43:07.665Z,32.50
2023-05-21T14:45:37.229Z,32.50
2023-05-21T14:48:09.966Z,32.50
2023-05-21T14:50:40.688Z,32.40
2023-05-21T14:53:12.536Z,32.40
2023-05-21T14:55:44.105Z,32.40
2023-05-21T14:58:14.038Z,32.40
2023-05-21T15:00:43.507Z,32.40
2023-05-21T15:03:14.003Z,32.40
2023-05-21T15:05:43.745Z,32.40
2023-05-21T15:08:13.268Z,32.40
2023-05-21T15:10:45.365Z,32.40
2023-05-21T15:13:14.842Z,32.40
2023-05-21T15:15:44.271Z,32.40
2023-05-21T15:18:17.131Z,32.30
2023-05-21T15:20:46.842Z,32.30
2023-05-21T15:23:27.993Z,32.30
2023-05-21T15:25:57.381Z,32.30
2023-05-21T15:28:26.833Z,32.20
2023-05-21T15:30:56.212Z,32.30
2023-05-21T15:33:36.897Z,32.20
2023-05-21T15:36:06.621Z,32.20
2023-05-21T15:38:36.122Z,32.20
2023-05-21T15:41:07.307Z,32.20
2023-05-21T15:43:41.849Z,32.20
2023-05-21T15:46:12.844Z,32.10
2023-05-21T15:48:43.940Z,32.10
2023-05-21T15:51:13.849Z,32.00
2023-05-21T15:53:43.292Z,32.00
2023-05-21T15:56:31.063Z,32.00
2023-05-21T15:59:02.429Z,32.00
2023-05-21T16:01:32.154Z,32.00
2023-05-21T16:04:07.584Z,32.00
2023-05-21T16:06:40.024Z,32.00
2023-05-21T16:09:09.861Z,32.00
2023-05-21T16:11:49.901Z,32.00
2023-05-21T16:14:19.428Z,32.00
2023-05-21T16:16:51.874Z,32.00
2023-05-21T16:19:23.904Z,32.00
2023-05-21T16:21:53.406Z,32.00
2023-05-21T16:24:22.766Z,31.90
2023-05-21T16:26:52.076Z,31.90
2023-05-21T16:29:22.086Z,31.90
2023-05-21T16:31:51.685Z,31.80
2023-05-21T16:34:22.705Z,31.80
2023-05-21T16:36:52.799Z,31.80
2023-05-21T16:39:23.689Z,31.80
2023-05-21T16:41:53.006Z,31.80
2023-05-21T16:44:22.317Z,31.80
2023-05-21T16:46:51.844Z,31.80
2023-05-21T16:49:21.249Z,31.70
2023-05-21T16:51:53.123Z,31.70
2023-05-21T16:54:22.691Z,31.70
2023-05-21T16:56:52.111Z,31.70
2023-05-21T16:59:21.478Z,31.70
2023-05-21T17:01:51.161Z,31.70
2023-05-21T17:04:20.535Z,31.70
2023-05-21T17:06:49.950Z,31.70
2023-05-21T17:09:19.274Z,31.70
2023-05-21T17:11:48.618Z,31.70
2023-05-21T17:14:32.981Z,31.70
2023-05-21T17:17:05.871Z,31.70
2023-05-21T17:19:35.279Z,31.70
2023-05-21T17:22:04.944Z,31.70
2023-05-21T17:24:34.192Z,31.70
2023-05-21T17:27:03.480Z,31.70
2023-05-21T17:29:33.637Z,31.70
2023-05-21T17:32:06.407Z,31.70
2023-05-21T17:34:35.759Z,31.70
2023-05-21T17:37:05.052Z,31.70
2023-05-21T17:39:34.436Z,31.70
2023-05-21T17:42:03.811Z,31.70
2023-05-21T17:44:33.112Z,31.60
2023-05-21T17:47:02.692Z,31.60
2023-05-21T17:49:32.676Z,31.60
2023-05-21T17:52:04.094Z,31.50
2023-05-21T17:54:33.504Z,31.50
2023-05-21T17:57:02.848Z,31.50
2023-05-21T17:59:32.102Z,31.50
2023-05-21T18:02:02.721Z,31.40
2023-05-21T18:04:32.061Z,31.40
2023-05-21T18:07:01.493Z,31.40
2023-05-21T18:09:30.794Z,31.40
2023-05-21T18:12:00.331Z,31.40
2023-05-21T18:14:29.880Z,31.40
2023-05-21T18:16:59.210Z,31.40
2023-05-21T18:19:29.093Z,31.40
2023-05-21T18:21:59.428Z,31.40
2023-05-21T18:24:28.813Z,31.30
2023-05-21T18:26:58.231Z,31.40
2023-05-21T18:29:27.590Z,31.30
2023-05-21T18:31:56.991Z,31.30
2023-05-21T18:34:26.530Z,31.30
2023-05-21T18:36:55.874Z,31.30
2023-05-21T18:39:25.795Z,31.30
2023-05-21T18:42:11.456Z,31.40
2023-05-21T18:44:42.167Z,31.40
2023-05-21T18:47:12.560Z,31.40
2023-05-21T18:49:41.904Z,31.40
2023-05-21T18:52:11.380Z,31.30
2023-05-21T18:54:40.746Z,31.30
2023-05-21T18:57:10.086Z,31.30
2023-05-21T18:59:39.927Z,31.30
2023-05-21T19:02:10.518Z,31.20
2023-05-21T19:04:40.161Z,31.20
2023-05-21T19:07:09.451Z,31.20
2023-05-21T19:09:38.865Z,31.20
2023-05-21T19:12:08.816Z,31.20
2023-05-21T19:14:38.823Z,31.20
2023-05-21T19:17:09.481Z,31.20
2023-05-21T19:19:39.472Z,31.20
2023-05-21T19:22:09.545Z,31.20
2023-05-21T19:24:39.408Z,31.20
2023-05-21T19:27:08.877Z,31.20
2023-05-21T19:29:38.240Z,31.20
2023-05-21T19:32:08.290Z,31.10
2023-05-21T19:34:42.634Z,31.10
2023-05-21T19:37:21.839Z,31.10
2023-05-21T19:39:51.813Z,31.10
2023-05-21T19:42:22.546Z,31.10
2023-05-21T19:44:51.935Z,31.00
2023-05-21T19:47:21.300Z,31.00
2023-05-21T19:49:50.696Z,30.90
2023-05-21T19:52:20.041Z,30.90
2023-05-21T19:54:49.386Z,30.90
2023-05-21T19:57:18.796Z,30.90
2023-05-21T19:59:48.178Z,30.90
2023-05-21T20:02:20.073Z,30.90
2023-05-21T20:04:49.384Z,30.90
2023-05-21T20:07:18.936Z,30.80
2023-05-21T20:09:48.395Z,30.80
2023-05-21T20:12:17.742Z,30.80
2023-05-21T20:14:48.605Z,30.80
2023-05-21T20:17:21.780Z,30.80
2023-05-21T20:19:51.260Z,30.70
2023-05-21T20:22:20.642Z,30.70
2023-05-21T20:24:50.019Z,30.70
2023-05-21T20:27:20.469Z,30.60
2023-05-21T20:29:56.885Z,30.60
2023-05-21T20:32:27.389Z,30.60
2023-05-21T20:35:03.398Z,30.60
2023-05-21T20:37:36.033Z,30.60
2023-05-21T20:40:07.452Z,30.50
2023-05-21T20:42:37.650Z,30.50
2023-05-21T20:45:07.526Z,30.50
2023-05-21T20:47:37.379Z,30.50
2023-05-21T20:50:07.525Z,30.40
2023-05-21T20:52:37.563Z,30.50
2023-05-21T20:55:07.552Z,30.40
2023-05-21T20:57:46.139Z,30.40
2023-05-21T21:00:17.102Z,30.40
2023-05-21T21:02:47.124Z,30.30
2023-05-21T21:05:17.471Z,30.30
2023-05-21T21:07:53.483Z,30.30
2023-05-21T21:10:25.091Z,30.30
2023-05-21T21:12:54.559Z,30.20
2023-05-21T21:15:24.059Z,30.20
2023-05-21T21:17:54.381Z,30.20
2023-05-21T21:20:23.748Z,30.20
2023-05-21T21:22:53.323Z,30.20
2023-05-21T21:25:22.906Z,30.10
2023-05-21T21:27:52.194Z,30.10
2023-05-21T21:30:21.698Z,30.10
2023-05-21T21:32:50.994Z,30.10
2023-05-21T21:35:20.457Z,30.10
2023-05-21T21:37:49.732Z,30.10
2023-05-21T21:40:19.146Z,30.10
2023-05-21T21:42:48.703Z,30.10
2023-05-21T21:45:18.126Z,30.10
2023-05-21T21:47:47.498Z,30.10
2023-05-21T21:50:16.970Z,30.00
2023-05-21T21:52:47.606Z,30.00
2023-05-21T21:55:17.147Z,30.00
2023-05-21T21:57:46.452Z,30.00
2023-05-21T22:00:18.934Z,30.00
2023-05-21T22:02:48.367Z,30.00
2023-05-21T22:05:18.018Z,30.00
2023-05-21T22:07:47.530Z,29.90
2023-05-21T22:10:18.676Z,29.90
2023-05-21T22:12:48.151Z,29.90
2023-05-21T22:15:29.614Z,29.90
2023-05-21T22:17:59.804Z,29.90
2023-05-21T22:20:31.988Z,29.80
2023-05-21T22:23:01.760Z,29.90
2023-05-21T22:25:33.681Z,29.80
2023-05-21T22:28:05.546Z,29.80
2023-05-21T22:30:40.444Z,29.80
2023-05-21T22:33:10.155Z,29.80
2023-05-21T22:35:39.528Z,29.80
2023-05-21T22:38:08.801Z,29.80
2023-05-21T22:40:39.171Z,29.80
2023-05-21T22:43:08.650Z,29.80
2023-05-21T22:45:39.286Z,29.70
2023-05-21T22:48:09.719Z,29.70
2023-05-21T22:50:41.706Z,29.70
2023-05-21T22:53:11.286Z,29.70
2023-05-21T22:55:40.568Z,29.60
2023-05-21T22:58:09.804Z,29.70
2023-05-21T23:00:42.135Z,29.60
2023-05-21T23:03:12.500Z,29.60
2023-05-21T23:05:41.944Z,29.60
2023-05-21T23:08:11.339Z,29.60
2023-05-21T23:10:40.910Z,29.50
2023-05-21T23:13:10.513Z,29.60
2023-05-21T23:15:40.867Z,29.50
2023-05-21T23:18:20.271Z,29.50
2023-05-21T23:20:49.724Z,29.50
2023-05-21T23:23:19.384Z,29.50
2023-05-21T23:25:48.782Z,29.50
2023-05-21T23:28:18.169Z,29.50
2023-05-21T23:30:47.728Z,29.60
2023-05-21T23:33:17.063Z,29.50
2023-05-21T23:35:46.657Z,29.60
2023-05-21T23:38:16.070Z,29.60
2023-05-21T23:40:46.219Z,29.60
2023-05-21T23:43:15.741Z,29.60
2023-05-21T23:45:45.622Z,29.70
2023-05-21T23:48:15.358Z,29.70
2023-05-21T23:50:44.924Z,29.80
2023-05-21T23:53:14.304Z,29.80
2023-05-21T23:55:43.707Z,29.80
2023-05-21T23:58:13.516Z,29.90
